sensor_id;sensor_type;location;lat;lon;timestamp;P1;durP1;ratioP1;P2;durP2;ratioP2
50737;SDS011;36703;48.154;17.126;2022-07-01T00:03:59;10.88;;;6.65;;
50737;SDS011;36703;48.154;17.126;2022-07-01T00:08:00;10.30;;;6.43;;
50737;SDS011;36703;48.154;17.126;2022-07-01T00:12:01;12.30;;;6.70;;
50737;SDS011;36703;48.154;17.126;2022-07-01T00:16:04;12.10;;;7.07;;
50737;SDS011;36703;48.154;17.126;2022-07-01T00:20:05;12.18;;;6.78;;
50737;SDS011;36703;48.154;17.126;2022-07-01T00:24:10;12.05;;;6.88;;
50737;SDS011;36703;48.154;17.126;2022-07-01T00:28:11;10.32;;;6.90;;
50737;SDS011;36703;48.154;17.126;2022-07-01T00:32:13;9.32;;;6.93;;
50737;SDS011;36703;48.154;17.126;2022-07-01T00:36:14;10.82;;;7.30;;
50737;SDS011;36703;48.154;17.126;2022-07-01T00:40:15;14.18;;;6.88;;
50737;SDS011;36703;48.154;17.126;2022-07-01T00:44:17;12.18;;;7.88;;
50737;SDS011;36703;48.154;17.126;2022-07-01T00:48:19;18.88;;;11.68;;
50737;SDS011;36703;48.154;17.126;2022-07-01T00:52:23;17.00;;;12.40;;
50737;SDS011;36703;48.154;17.126;2022-07-01T00:56:24;16.00;;;12.40;;
50737;SDS011;36703;48.154;17.126;2022-07-01T01:00:25;20.50;;;14.02;;
50737;SDS011;36703;48.154;17.126;2022-07-01T01:04:27;23.88;;;16.33;;
50737;SDS011;36703;48.154;17.126;2022-07-01T01:08:28;19.90;;;16.77;;
50737;SDS011;36703;48.154;17.126;2022-07-01T01:12:30;18.38;;;14.23;;
50737;SDS011;36703;48.154;17.126;2022-07-01T01:16:31;15.48;;;11.95;;
50737;SDS011;36703;48.154;17.126;2022-07-01T01:20:37;13.80;;;10.70;;
50737;SDS011;36703;48.154;17.126;2022-07-01T01:24:39;17.23;;;12.40;;
50737;SDS011;36703;48.154;17.126;2022-07-01T01:28:40;13.50;;;10.05;;
50737;SDS011;36703;48.154;17.126;2022-07-01T01:32:42;11.02;;;8.93;;
50737;SDS011;36703;48.154;17.126;2022-07-01T01:36:43;17.80;;;9.20;;
50737;SDS011;36703;48.154;17.126;2022-07-01T01:40:44;11.43;;;8.18;;
50737;SDS011;36703;48.154;17.126;2022-07-01T01:44:46;13.48;;;8.45;;
50737;SDS011;36703;48.154;17.126;2022-07-01T01:48:47;12.73;;;9.10;;
50737;SDS011;36703;48.154;17.126;2022-07-01T01:52:48;16.98;;;9.77;;
50737;SDS011;36703;48.154;17.126;2022-07-01T01:56:50;14.82;;;11.57;;
50737;SDS011;36703;48.154;17.126;2022-07-01T02:00:51;16.42;;;11.90;;
50737;SDS011;36703;48.154;17.126;2022-07-01T02:04:52;20.55;;;12.73;;
50737;SDS011;36703;48.154;17.126;2022-07-01T02:08:54;17.15;;;11.90;;
50737;SDS011;36703;48.154;17.126;2022-07-01T02:12:55;12.60;;;10.05;;
50737;SDS011;36703;48.154;17.126;2022-07-01T02:16:57;12.20;;;9.07;;
50737;SDS011;36703;48.154;17.126;2022-07-01T02:21:01;12.90;;;9.40;;
50737;SDS011;36703;48.154;17.126;2022-07-01T02:25:02;12.18;;;9.73;;
50737;SDS011;36703;48.154;17.126;2022-07-01T02:29:04;13.93;;;9.65;;
50737;SDS011;36703;48.154;17.126;2022-07-01T02:33:05;12.15;;;10.40;;
50737;SDS011;36703;48.154;17.126;2022-07-01T02:37:07;13.25;;;11.13;;
50737;SDS011;36703;48.154;17.126;2022-07-01T02:41:09;13.68;;;11.70;;
50737;SDS011;36703;48.154;17.126;2022-07-01T02:45:10;14.48;;;10.77;;
50737;SDS011;36703;48.154;17.126;2022-07-01T02:49:11;12.65;;;9.60;;
50737;SDS011;36703;48.154;17.126;2022-07-01T02:53:12;14.38;;;8.85;;
50737;SDS011;36703;48.154;17.126;2022-07-01T02:57:14;21.88;;;9.77;;
50737;SDS011;36703;48.154;17.126;2022-07-01T03:01:15;14.77;;;9.73;;
50737;SDS011;36703;48.154;17.126;2022-07-01T03:05:16;15.68;;;9.93;;
50737;SDS011;36703;48.154;17.126;2022-07-01T03:09:17;13.18;;;9.30;;
50737;SDS011;36703;48.154;17.126;2022-07-01T03:13:19;15.75;;;10.02;;
50737;SDS011;36703;48.154;17.126;2022-07-01T03:17:20;17.77;;;13.10;;
50737;SDS011;36703;48.154;17.126;2022-07-01T03:21:21;15.40;;;12.90;;
50737;SDS011;36703;48.154;17.126;2022-07-01T03:25:22;18.88;;;12.25;;
50737;SDS011;36703;48.154;17.126;2022-07-01T03:29:24;14.75;;;10.23;;
50737;SDS011;36703;48.154;17.126;2022-07-01T03:33:25;15.90;;;10.30;;
50737;SDS011;36703;48.154;17.126;2022-07-01T03:37:26;10.40;;;9.07;;
50737;SDS011;36703;48.154;17.126;2022-07-01T03:41:27;12.52;;;9.50;;
50737;SDS011;36703;48.154;17.126;2022-07-01T03:45:29;14.57;;;9.70;;
50737;SDS011;36703;48.154;17.126;2022-07-01T03:49:30;13.73;;;8.93;;
50737;SDS011;36703;48.154;17.126;2022-07-01T03:53:34;16.08;;;11.27;;
50737;SDS011;36703;48.154;17.126;2022-07-01T03:57:54;19.85;;;14.30;;
50737;SDS011;36703;48.154;17.126;2022-07-01T04:01:55;20.20;;;13.85;;
50737;SDS011;36703;48.154;17.126;2022-07-01T04:05:57;16.65;;;12.05;;
50737;SDS011;36703;48.154;17.126;2022-07-01T04:09:59;14.52;;;10.80;;
50737;SDS011;36703;48.154;17.126;2022-07-01T04:14:00;14.23;;;9.55;;
50737;SDS011;36703;48.154;17.126;2022-07-01T04:18:01;12.60;;;10.15;;
50737;SDS011;36703;48.154;17.126;2022-07-01T04:22:02;10.98;;;8.73;;
50737;SDS011;36703;48.154;17.126;2022-07-01T04:26:23;14.88;;;9.15;;
50737;SDS011;36703;48.154;17.126;2022-07-01T04:30:25;12.65;;;8.80;;
50737;SDS011;36703;48.154;17.126;2022-07-01T04:34:26;13.32;;;8.15;;
50737;SDS011;36703;48.154;17.126;2022-07-01T04:38:27;12.07;;;8.55;;
50737;SDS011;36703;48.154;17.126;2022-07-01T04:42:28;16.15;;;10.02;;
50737;SDS011;36703;48.154;17.126;2022-07-01T04:46:29;15.85;;;11.13;;
50737;SDS011;36703;48.154;17.126;2022-07-01T04:50:30;17.80;;;12.75;;
50737;SDS011;36703;48.154;17.126;2022-07-01T04:54:32;21.98;;;13.90;;
50737;SDS011;36703;48.154;17.126;2022-07-01T04:58:33;21.27;;;13.32;;
50737;SDS011;36703;48.154;17.126;2022-07-01T05:02:35;17.20;;;11.57;;
50737;SDS011;36703;48.154;17.126;2022-07-01T05:06:36;19.48;;;12.45;;
50737;SDS011;36703;48.154;17.126;2022-07-01T05:10:38;20.23;;;13.70;;
50737;SDS011;36703;48.154;17.126;2022-07-01T05:14:39;17.08;;;12.60;;
50737;SDS011;36703;48.154;17.126;2022-07-01T05:18:40;17.45;;;13.43;;
50737;SDS011;36703;48.154;17.126;2022-07-01T05:22:59;16.90;;;11.98;;
50737;SDS011;36703;48.154;17.126;2022-07-01T05:27:01;20.05;;;9.93;;
50737;SDS011;36703;48.154;17.126;2022-07-01T05:31:02;13.90;;;9.40;;
50737;SDS011;36703;48.154;17.126;2022-07-01T05:35:04;13.98;;;8.73;;
50737;SDS011;36703;48.154;17.126;2022-07-01T05:39:05;13.02;;;8.35;;
50737;SDS011;36703;48.154;17.126;2022-07-01T05:43:07;13.05;;;8.27;;
50737;SDS011;36703;48.154;17.126;2022-07-01T05:47:08;14.55;;;8.52;;
50737;SDS011;36703;48.154;17.126;2022-07-01T05:51:10;15.95;;;8.57;;
50737;SDS011;36703;48.154;17.126;2022-07-01T05:55:11;12.20;;;8.93;;
50737;SDS011;36703;48.154;17.126;2022-07-01T05:59:12;13.18;;;9.05;;
50737;SDS011;36703;48.154;17.126;2022-07-01T06:03:14;17.65;;;10.02;;
50737;SDS011;36703;48.154;17.126;2022-07-01T06:07:16;15.38;;;9.98;;
50737;SDS011;36703;48.154;17.126;2022-07-01T06:11:17;15.60;;;11.27;;
50737;SDS011;36703;48.154;17.126;2022-07-01T06:15:18;15.52;;;10.90;;
50737;SDS011;36703;48.154;17.126;2022-07-01T06:19:20;16.58;;;10.63;;
50737;SDS011;36703;48.154;17.126;2022-07-01T06:23:21;17.63;;;11.95;;
50737;SDS011;36703;48.154;17.126;2022-07-01T06:27:22;15.13;;;11.50;;
50737;SDS011;36703;48.154;17.126;2022-07-01T06:31:24;19.77;;;11.43;;
50737;SDS011;36703;48.154;17.126;2022-07-01T06:35:25;15.07;;;11.45;;
50737;SDS011;36703;48.154;17.126;2022-07-01T06:39:26;15.52;;;10.10;;
50737;SDS011;36703;48.154;17.126;2022-07-01T06:43:28;17.05;;;10.13;;
50737;SDS011;36703;48.154;17.126;2022-07-01T06:47:29;20.35;;;9.90;;
50737;SDS011;36703;48.154;17.126;2022-07-01T06:51:30;18.67;;;9.35;;
50737;SDS011;36703;48.154;17.126;2022-07-01T06:55:32;11.80;;;8.88;;
50737;SDS011;36703;48.154;17.126;2022-07-01T06:59:33;10.73;;;8.85;;
50737;SDS011;36703;48.154;17.126;2022-07-01T07:03:35;11.45;;;7.47;;
50737;SDS011;36703;48.154;17.126;2022-07-01T07:07:36;8.75;;;6.70;;
50737;SDS011;36703;48.154;17.126;2022-07-01T07:11:37;10.23;;;6.35;;
50737;SDS011;36703;48.154;17.126;2022-07-01T07:15:38;9.68;;;7.38;;
50737;SDS011;36703;48.154;17.126;2022-07-01T07:19:42;12.38;;;7.43;;
50737;SDS011;36703;48.154;17.126;2022-07-01T07:23:43;12.55;;;7.57;;
50737;SDS011;36703;48.154;17.126;2022-07-01T07:27:45;10.73;;;6.93;;
50737;SDS011;36703;48.154;17.126;2022-07-01T07:31:46;9.05;;;5.88;;
50737;SDS011;36703;48.154;17.126;2022-07-01T07:35:48;11.05;;;6.10;;
50737;SDS011;36703;48.154;17.126;2022-07-01T07:39:49;7.65;;;5.88;;
50737;SDS011;36703;48.154;17.126;2022-07-01T07:43:50;12.13;;;5.45;;
50737;SDS011;36703;48.154;17.126;2022-07-01T07:47:51;7.05;;;5.18;;
50737;SDS011;36703;48.154;17.126;2022-07-01T07:51:55;6.53;;;4.85;;
50737;SDS011;36703;48.154;17.126;2022-07-01T07:55:56;6.53;;;3.60;;
50737;SDS011;36703;48.154;17.126;2022-07-01T07:59:57;3.63;;;2.30;;
50737;SDS011;36703;48.154;17.126;2022-07-01T08:03:58;5.78;;;2.60;;
50737;SDS011;36703;48.154;17.126;2022-07-01T08:08:00;5.70;;;2.00;;
50737;SDS011;36703;48.154;17.126;2022-07-01T08:12:01;6.63;;;1.70;;
50737;SDS011;36703;48.154;17.126;2022-07-01T08:16:04;6.45;;;1.83;;
50737;SDS011;36703;48.154;17.126;2022-07-01T08:20:05;3.15;;;1.80;;
50737;SDS011;36703;48.154;17.126;2022-07-01T08:24:08;6.47;;;1.65;;
50737;SDS011;36703;48.154;17.126;2022-07-01T08:28:09;6.90;;;1.60;;
50737;SDS011;36703;48.154;17.126;2022-07-01T08:32:11;5.88;;;1.38;;
50737;SDS011;36703;48.154;17.126;2022-07-01T08:36:12;6.65;;;1.20;;
50737;SDS011;36703;48.154;17.126;2022-07-01T08:40:15;3.33;;;1.15;;
50737;SDS011;36703;48.154;17.126;2022-07-01T08:44:16;6.60;;;1.55;;
50737;SDS011;36703;48.154;17.126;2022-07-01T08:48:18;5.82;;;1.35;;
50737;SDS011;36703;48.154;17.126;2022-07-01T08:52:19;4.82;;;1.50;;
50737;SDS011;36703;48.154;17.126;2022-07-01T08:56:21;5.13;;;1.30;;
50737;SDS011;36703;48.154;17.126;2022-07-01T09:00:40;3.55;;;1.33;;
50737;SDS011;36703;48.154;17.126;2022-07-01T09:04:41;8.13;;;1.60;;
50737;SDS011;36703;48.154;17.126;2022-07-01T09:08:43;2.88;;;1.50;;
50737;SDS011;36703;48.154;17.126;2022-07-01T09:12:46;3.42;;;1.40;;
50737;SDS011;36703;48.154;17.126;2022-07-01T09:16:49;5.80;;;1.63;;
50737;SDS011;36703;48.154;17.126;2022-07-01T09:20:53;5.15;;;1.65;;
50737;SDS011;36703;48.154;17.126;2022-07-01T09:24:54;3.80;;;1.73;;
50737;SDS011;36703;48.154;17.126;2022-07-01T09:28:56;7.88;;;2.10;;
50737;SDS011;36703;48.154;17.126;2022-07-01T09:33:11;4.00;;;1.67;;
50737;SDS011;36703;48.154;17.126;2022-07-01T09:37:19;4.43;;;1.77;;
50737;SDS011;36703;48.154;17.126;2022-07-01T09:41:25;9.05;;;1.85;;
50737;SDS011;36703;48.154;17.126;2022-07-01T09:45:26;5.82;;;1.92;;
50737;SDS011;36703;48.154;17.126;2022-07-01T09:49:27;5.88;;;1.90;;
50737;SDS011;36703;48.154;17.126;2022-07-01T09:53:29;6.25;;;2.15;;
50737;SDS011;36703;48.154;17.126;2022-07-01T09:57:30;4.45;;;1.75;;
50737;SDS011;36703;48.154;17.126;2022-07-01T10:01:32;5.57;;;2.00;;
50737;SDS011;36703;48.154;17.126;2022-07-01T10:05:39;8.40;;;1.85;;
50737;SDS011;36703;48.154;17.126;2022-07-01T10:09:53;5.97;;;1.90;;
50737;SDS011;36703;48.154;17.126;2022-07-01T10:14:16;3.95;;;2.17;;
50737;SDS011;36703;48.154;17.126;2022-07-01T10:18:20;6.13;;;2.35;;
50737;SDS011;36703;48.154;17.126;2022-07-01T10:22:24;6.13;;;2.22;;
50737;SDS011;36703;48.154;17.126;2022-07-01T10:26:28;7.05;;;2.60;;
50737;SDS011;36703;48.154;17.126;2022-07-01T10:30:30;4.20;;;2.30;;
50737;SDS011;36703;48.154;17.126;2022-07-01T10:34:40;6.43;;;2.30;;
50737;SDS011;36703;48.154;17.126;2022-07-01T10:43:07;5.20;;;2.50;;
50737;SDS011;36703;48.154;17.126;2022-07-01T10:47:08;6.55;;;2.20;;
50737;SDS011;36703;48.154;17.126;2022-07-01T10:51:10;4.10;;;2.60;;
50737;SDS011;36703;48.154;17.126;2022-07-01T10:55:15;6.60;;;2.20;;
50737;SDS011;36703;48.154;17.126;2022-07-01T10:59:17;6.60;;;2.60;;
50737;SDS011;36703;48.154;17.126;2022-07-01T11:03:20;5.30;;;2.40;;
50737;SDS011;36703;48.154;17.126;2022-07-01T11:07:24;3.75;;;2.33;;
50737;SDS011;36703;48.154;17.126;2022-07-01T11:11:27;4.72;;;2.45;;
50737;SDS011;36703;48.154;17.126;2022-07-01T11:15:30;7.50;;;3.00;;
50737;SDS011;36703;48.154;17.126;2022-07-01T11:19:32;11.70;;;2.70;;
50737;SDS011;36703;48.154;17.126;2022-07-01T11:23:34;9.70;;;2.88;;
50737;SDS011;36703;48.154;17.126;2022-07-01T11:27:36;4.15;;;2.63;;
50737;SDS011;36703;48.154;17.126;2022-07-01T11:31:39;8.35;;;2.83;;
50737;SDS011;36703;48.154;17.126;2022-07-01T11:35:40;3.95;;;2.60;;
50737;SDS011;36703;48.154;17.126;2022-07-01T11:40:03;5.65;;;2.20;;
50737;SDS011;36703;48.154;17.126;2022-07-01T11:44:10;3.65;;;2.50;;
50737;SDS011;36703;48.154;17.126;2022-07-01T11:48:11;10.63;;;2.25;;
50737;SDS011;36703;48.154;17.126;2022-07-01T11:52:12;4.90;;;2.42;;
50737;SDS011;36703;48.154;17.126;2022-07-01T11:56:14;6.20;;;2.42;;
50737;SDS011;36703;48.154;17.126;2022-07-01T12:00:18;6.82;;;3.10;;
50737;SDS011;36703;48.154;17.126;2022-07-01T12:04:20;7.53;;;2.70;;
50737;SDS011;36703;48.154;17.126;2022-07-01T12:08:21;5.10;;;2.47;;
50737;SDS011;36703;48.154;17.126;2022-07-01T12:12:23;7.45;;;2.65;;
50737;SDS011;36703;48.154;17.126;2022-07-01T12:16:27;5.63;;;2.50;;
50737;SDS011;36703;48.154;17.126;2022-07-01T12:20:38;5.00;;;2.53;;
50737;SDS011;36703;48.154;17.126;2022-07-01T12:24:39;5.00;;;2.90;;
50737;SDS011;36703;48.154;17.126;2022-07-01T12:28:42;9.25;;;3.00;;
50737;SDS011;36703;48.154;17.126;2022-07-01T12:32:44;5.03;;;2.75;;
50737;SDS011;36703;48.154;17.126;2022-07-01T12:36:49;4.65;;;2.58;;
50737;SDS011;36703;48.154;17.126;2022-07-01T12:40:50;8.20;;;2.78;;
50737;SDS011;36703;48.154;17.126;2022-07-01T12:44:52;4.45;;;2.42;;
50737;SDS011;36703;48.154;17.126;2022-07-01T12:48:56;4.65;;;2.67;;
50737;SDS011;36703;48.154;17.126;2022-07-01T12:53:02;7.72;;;2.80;;
50737;SDS011;36703;48.154;17.126;2022-07-01T12:57:07;5.50;;;2.60;;
50737;SDS011;36703;48.154;17.126;2022-07-01T13:01:08;8.90;;;2.70;;
50737;SDS011;36703;48.154;17.126;2022-07-01T13:05:09;6.38;;;2.72;;
50737;SDS011;36703;48.154;17.126;2022-07-01T13:09:11;5.78;;;2.42;;
50737;SDS011;36703;48.154;17.126;2022-07-01T13:13:12;9.55;;;2.78;;
50737;SDS011;36703;48.154;17.126;2022-07-01T13:17:16;4.78;;;2.75;;
50737;SDS011;36703;48.154;17.126;2022-07-01T13:21:17;7.97;;;2.90;;
50737;SDS011;36703;48.154;17.126;2022-07-01T13:25:18;4.60;;;2.65;;
50737;SDS011;36703;48.154;17.126;2022-07-01T13:29:20;4.78;;;2.92;;
50737;SDS011;36703;48.154;17.126;2022-07-01T13:33:21;6.97;;;3.08;;
50737;SDS011;36703;48.154;17.126;2022-07-01T13:37:22;3.42;;;2.58;;
50737;SDS011;36703;48.154;17.126;2022-07-01T13:41:24;6.50;;;2.97;;
50737;SDS011;36703;48.154;17.126;2022-07-01T13:45:25;3.78;;;2.72;;
50737;SDS011;36703;48.154;17.126;2022-07-01T13:49:29;9.52;;;2.95;;
50737;SDS011;36703;48.154;17.126;2022-07-01T13:53:31;3.90;;;2.80;;
50737;SDS011;36703;48.154;17.126;2022-07-01T13:57:33;9.93;;;2.88;;
50737;SDS011;36703;48.154;17.126;2022-07-01T14:01:34;5.38;;;2.60;;
50737;SDS011;36703;48.154;17.126;2022-07-01T14:05:37;5.68;;;2.60;;
50737;SDS011;36703;48.154;17.126;2022-07-01T14:09:38;6.65;;;2.75;;
50737;SDS011;36703;48.154;17.126;2022-07-01T14:13:40;4.47;;;2.65;;
50737;SDS011;36703;48.154;17.126;2022-07-01T14:17:42;7.70;;;2.88;;
50737;SDS011;36703;48.154;17.126;2022-07-01T14:21:45;13.10;;;2.90;;
50737;SDS011;36703;48.154;17.126;2022-07-01T14:25:46;8.82;;;2.70;;
50737;SDS011;36703;48.154;17.126;2022-07-01T14:29:47;12.23;;;2.67;;
50737;SDS011;36703;48.154;17.126;2022-07-01T14:33:48;7.75;;;2.42;;
50737;SDS011;36703;48.154;17.126;2022-07-01T14:37:49;8.63;;;2.97;;
50737;SDS011;36703;48.154;17.126;2022-07-01T14:41:50;7.95;;;2.80;;
50737;SDS011;36703;48.154;17.126;2022-07-01T14:45:53;7.25;;;2.70;;
50737;SDS011;36703;48.154;17.126;2022-07-01T14:49:54;4.65;;;2.53;;
50737;SDS011;36703;48.154;17.126;2022-07-01T14:53:55;10.20;;;2.80;;
50737;SDS011;36703;48.154;17.126;2022-07-01T14:57:57;4.88;;;2.47;;
50737;SDS011;36703;48.154;17.126;2022-07-01T15:01:58;5.55;;;2.65;;
50737;SDS011;36703;48.154;17.126;2022-07-01T15:06:04;4.97;;;2.85;;
50737;SDS011;36703;48.154;17.126;2022-07-01T15:10:06;6.30;;;2.75;;
50737;SDS011;36703;48.154;17.126;2022-07-01T15:14:08;4.07;;;2.60;;
50737;SDS011;36703;48.154;17.126;2022-07-01T15:18:10;8.18;;;2.92;;
50737;SDS011;36703;48.154;17.126;2022-07-01T15:22:11;7.20;;;2.80;;
50737;SDS011;36703;48.154;17.126;2022-07-01T15:26:13;6.75;;;2.50;;
50737;SDS011;36703;48.154;17.126;2022-07-01T15:30:14;8.48;;;3.10;;
50737;SDS011;36703;48.154;17.126;2022-07-01T15:34:17;5.78;;;2.40;;
50737;SDS011;36703;48.154;17.126;2022-07-01T15:38:18;5.35;;;2.72;;
50737;SDS011;36703;48.154;17.126;2022-07-01T15:42:21;9.98;;;2.95;;
50737;SDS011;36703;48.154;17.126;2022-07-01T15:46:22;5.53;;;2.60;;
50737;SDS011;36703;48.154;17.126;2022-07-01T15:50:23;5.13;;;2.63;;
50737;SDS011;36703;48.154;17.126;2022-07-01T15:54:25;13.00;;;3.35;;
50737;SDS011;36703;48.154;17.126;2022-07-01T15:58:26;10.45;;;3.22;;
50737;SDS011;36703;48.154;17.126;2022-07-01T16:02:29;6.90;;;2.78;;
50737;SDS011;36703;48.154;17.126;2022-07-01T16:06:31;7.53;;;3.10;;
50737;SDS011;36703;48.154;17.126;2022-07-01T16:10:46;5.78;;;3.22;;
50737;SDS011;36703;48.154;17.126;2022-07-01T16:14:54;7.55;;;3.13;;
50737;SDS011;36703;48.154;17.126;2022-07-01T16:18:58;6.15;;;2.90;;
50737;SDS011;36703;48.154;17.126;2022-07-01T16:23:02;6.22;;;2.70;;
50737;SDS011;36703;48.154;17.126;2022-07-01T16:27:04;8.20;;;3.13;;
50737;SDS011;36703;48.154;17.126;2022-07-01T16:31:06;5.07;;;3.03;;
50737;SDS011;36703;48.154;17.126;2022-07-01T16:35:08;8.60;;;3.25;;
50737;SDS011;36703;48.154;17.126;2022-07-01T16:39:16;6.80;;;3.08;;
50737;SDS011;36703;48.154;17.126;2022-07-01T16:43:21;6.65;;;3.10;;
50737;SDS011;36703;48.154;17.126;2022-07-01T16:47:31;6.72;;;2.85;;
50737;SDS011;36703;48.154;17.126;2022-07-01T16:51:35;5.15;;;2.80;;
50737;SDS011;36703;48.154;17.126;2022-07-01T16:55:42;4.68;;;2.70;;
50737;SDS011;36703;48.154;17.126;2022-07-01T16:59:45;4.25;;;2.60;;
50737;SDS011;36703;48.154;17.126;2022-07-01T17:03:47;4.75;;;2.80;;
50737;SDS011;36703;48.154;17.126;2022-07-01T17:07:48;5.28;;;2.75;;
50737;SDS011;36703;48.154;17.126;2022-07-01T17:11:49;4.68;;;2.70;;
50737;SDS011;36703;48.154;17.126;2022-07-01T17:15:51;9.43;;;2.83;;
50737;SDS011;36703;48.154;17.126;2022-07-01T17:19:56;9.43;;;3.50;;
50737;SDS011;36703;48.154;17.126;2022-07-01T17:23:59;10.98;;;3.22;;
50737;SDS011;36703;48.154;17.126;2022-07-01T17:32:59;33.10;;;3.60;;
50737;SDS011;36703;48.154;17.126;2022-07-01T17:37:06;18.60;;;2.47;;
50737;SDS011;36703;48.154;17.126;2022-07-01T17:41:10;26.00;;;1.95;;
50737;SDS011;36703;48.154;17.126;2022-07-01T17:45:16;18.20;;;1.88;;
50737;SDS011;36703;48.154;17.126;2022-07-01T17:49:21;8.48;;;1.80;;
50737;SDS011;36703;48.154;17.126;2022-07-01T17:53:25;12.75;;;1.90;;
50737;SDS011;36703;48.154;17.126;2022-07-01T17:57:28;7.22;;;1.38;;
50737;SDS011;36703;48.154;17.126;2022-07-01T18:01:32;9.43;;;1.35;;
50737;SDS011;36703;48.154;17.126;2022-07-01T18:05:36;5.38;;;1.10;;
50737;SDS011;36703;48.154;17.126;2022-07-01T18:09:39;12.75;;;1.48;;
50737;SDS011;36703;48.154;17.126;2022-07-01T18:13:50;13.95;;;1.95;;
50737;SDS011;36703;48.154;17.126;2022-07-01T18:18:16;14.60;;;1.40;;
50737;SDS011;36703;48.154;17.126;2022-07-01T18:22:33;16.80;;;1.88;;
50737;SDS011;36703;48.154;17.126;2022-07-01T18:26:45;8.18;;;1.35;;
50737;SDS011;36703;48.154;17.126;2022-07-01T18:30:48;7.22;;;1.00;;
50737;SDS011;36703;48.154;17.126;2022-07-01T18:34:53;5.95;;;1.60;;
50737;SDS011;36703;48.154;17.126;2022-07-01T18:39:00;6.50;;;1.10;;
50737;SDS011;36703;48.154;17.126;2022-07-01T18:43:04;8.02;;;1.17;;
50737;SDS011;36703;48.154;17.126;2022-07-01T18:47:08;7.43;;;0.90;;
50737;SDS011;36703;48.154;17.126;2022-07-01T18:51:09;9.07;;;1.15;;
50737;SDS011;36703;48.154;17.126;2022-07-01T18:55:10;5.82;;;0.80;;
50737;SDS011;36703;48.154;17.126;2022-07-01T18:59:12;5.85;;;1.23;;
50737;SDS011;36703;48.154;17.126;2022-07-01T19:03:13;5.97;;;0.88;;
50737;SDS011;36703;48.154;17.126;2022-07-01T19:07:14;2.58;;;0.70;;
50737;SDS011;36703;48.154;17.126;2022-07-01T19:11:15;6.72;;;0.70;;
50737;SDS011;36703;48.154;17.126;2022-07-01T19:15:17;3.50;;;0.90;;
50737;SDS011;36703;48.154;17.126;2022-07-01T19:19:18;1.55;;;0.75;;
50737;SDS011;36703;48.154;17.126;2022-07-01T19:23:20;9.85;;;0.68;;
50737;SDS011;36703;48.154;17.126;2022-07-01T19:27:21;5.95;;;0.65;;
50737;SDS011;36703;48.154;17.126;2022-07-01T19:31:23;0.85;;;0.43;;
50737;SDS011;36703;48.154;17.126;2022-07-01T19:35:24;2.42;;;0.50;;
50737;SDS011;36703;48.154;17.126;2022-07-01T19:39:25;3.75;;;0.70;;
50737;SDS011;36703;48.154;17.126;2022-07-01T19:43:27;1.10;;;0.57;;
50737;SDS011;36703;48.154;17.126;2022-07-01T19:47:28;2.95;;;0.73;;
50737;SDS011;36703;48.154;17.126;2022-07-01T19:51:30;0.73;;;0.40;;
50737;SDS011;36703;48.154;17.126;2022-07-01T19:55:35;2.72;;;0.47;;
50737;SDS011;36703;48.154;17.126;2022-07-01T19:59:36;1.85;;;0.77;;
50737;SDS011;36703;48.154;17.126;2022-07-01T20:03:37;1.45;;;0.50;;
50737;SDS011;36703;48.154;17.126;2022-07-01T20:07:38;1.60;;;0.60;;
50737;SDS011;36703;48.154;17.126;2022-07-01T20:11:40;1.30;;;0.63;;
50737;SDS011;36703;48.154;17.126;2022-07-01T20:15:41;6.75;;;0.70;;
50737;SDS011;36703;48.154;17.126;2022-07-01T20:19:44;1.50;;;0.63;;
50737;SDS011;36703;48.154;17.126;2022-07-01T20:23:49;4.32;;;0.50;;
50737;SDS011;36703;48.154;17.126;2022-07-01T20:27:52;3.67;;;0.40;;
50737;SDS011;36703;48.154;17.126;2022-07-01T20:31:53;1.23;;;0.50;;
50737;SDS011;36703;48.154;17.126;2022-07-01T20:35:54;0.95;;;0.43;;
50737;SDS011;36703;48.154;17.126;2022-07-01T20:39:55;1.15;;;0.68;;
50737;SDS011;36703;48.154;17.126;2022-07-01T20:43:57;4.43;;;0.70;;
50737;SDS011;36703;48.154;17.126;2022-07-01T20:47:58;3.78;;;0.50;;
50737;SDS011;36703;48.154;17.126;2022-07-01T20:52:00;1.95;;;0.50;;
50737;SDS011;36703;48.154;17.126;2022-07-01T20:56:01;2.55;;;0.70;;
50737;SDS011;36703;48.154;17.126;2022-07-01T21:00:03;1.08;;;0.50;;
50737;SDS011;36703;48.154;17.126;2022-07-01T21:04:05;3.08;;;0.70;;
50737;SDS011;36703;48.154;17.126;2022-07-01T21:08:07;1.30;;;0.70;;
50737;SDS011;36703;48.154;17.126;2022-07-01T21:12:08;1.45;;;0.68;;
50737;SDS011;36703;48.154;17.126;2022-07-01T21:16:10;1.88;;;0.60;;
50737;SDS011;36703;48.154;17.126;2022-07-01T21:20:11;1.90;;;0.40;;
50737;SDS011;36703;48.154;17.126;2022-07-01T21:24:12;3.15;;;0.50;;
50737;SDS011;36703;48.154;17.126;2022-07-01T21:28:13;2.28;;;0.43;;
50737;SDS011;36703;48.154;17.126;2022-07-01T21:32:15;1.45;;;0.60;;
50737;SDS011;36703;48.154;17.126;2022-07-01T21:36:16;3.03;;;0.70;;
50737;SDS011;36703;48.154;17.126;2022-07-01T21:40:21;2.53;;;0.80;;
50737;SDS011;36703;48.154;17.126;2022-07-01T21:44:22;1.20;;;0.60;;
50737;SDS011;36703;48.154;17.126;2022-07-01T21:48:29;1.20;;;0.63;;
50737;SDS011;36703;48.154;17.126;2022-07-01T21:52:32;4.25;;;0.70;;
50737;SDS011;36703;48.154;17.126;2022-07-01T21:56:34;2.35;;;0.68;;
50737;SDS011;36703;48.154;17.126;2022-07-01T22:00:39;1.48;;;0.63;;
50737;SDS011;36703;48.154;17.126;2022-07-01T22:04:40;0.80;;;0.50;;
50737;SDS011;36703;48.154;17.126;2022-07-01T22:08:41;2.40;;;0.60;;
50737;SDS011;36703;48.154;17.126;2022-07-01T22:12:43;1.63;;;0.80;;
50737;SDS011;36703;48.154;17.126;2022-07-01T22:16:45;1.02;;;0.50;;
50737;SDS011;36703;48.154;17.126;2022-07-01T22:20:50;1.45;;;0.68;;
50737;SDS011;36703;48.154;17.126;2022-07-01T22:24:53;2.30;;;0.60;;
50737;SDS011;36703;48.154;17.126;2022-07-01T22:28:56;1.88;;;0.50;;
50737;SDS011;36703;48.154;17.126;2022-07-01T22:32:59;1.77;;;0.60;;
50737;SDS011;36703;48.154;17.126;2022-07-01T22:37:02;4.45;;;0.77;;
50737;SDS011;36703;48.154;17.126;2022-07-01T22:41:04;2.70;;;0.70;;
50737;SDS011;36703;48.154;17.126;2022-07-01T22:45:08;1.48;;;0.50;;
50737;SDS011;36703;48.154;17.126;2022-07-01T22:53:49;3.45;;;0.52;;
50737;SDS011;36703;48.154;17.126;2022-07-01T23:02:23;1.08;;;0.60;;
50737;SDS011;36703;48.154;17.126;2022-07-01T23:06:29;2.42;;;0.50;;
50737;SDS011;36703;48.154;17.126;2022-07-01T23:10:56;1.10;;;0.75;;
50737;SDS011;36703;48.154;17.126;2022-07-01T23:15:01;0.80;;;0.77;;
50737;SDS011;36703;48.154;17.126;2022-07-01T23:19:21;0.88;;;0.60;;
50737;SDS011;36703;48.154;17.126;2022-07-01T23:23:24;1.35;;;0.70;;
50737;SDS011;36703;48.154;17.126;2022-07-01T23:27:26;1.25;;;0.60;;
50737;SDS011;36703;48.154;17.126;2022-07-01T23:31:30;1.80;;;0.60;;
50737;SDS011;36703;48.154;17.126;2022-07-01T23:35:32;2.78;;;0.70;;
50737;SDS011;36703;48.154;17.126;2022-07-01T23:39:33;4.45;;;0.60;;
50737;SDS011;36703;48.154;17.126;2022-07-01T23:43:38;1.35;;;0.52;;
50737;SDS011;36703;48.154;17.126;2022-07-01T23:47:39;1.38;;;0.50;;
50737;SDS011;36703;48.154;17.126;2022-07-01T23:51:40;3.60;;;0.52;;
50737;SDS011;36703;48.154;17.126;2022-07-01T23:55:41;1.20;;;0.50;;
50737;SDS011;36703;48.154;17.126;2022-07-01T23:59:43;1.27;;;0.60;;
